Saturday, September 21, 2019, 12:26 PM CDT
Back to Local

KMEM, Memphis International Airport

Location: Memphis, TN, United States Lat: 35.033
Local Time: 12:26 PM CDT (17:26 GMT) Lon: -89.983
Time Zone: US/Central Elev: 334 ft

Show me the last for .
Show Decoded

2019-09-21 11:54 METAR KMEM 211654Z 20007KT 10SM CLR 31/15 A3021 RMK AO2 SLP226 T03060150 $ =
2019-09-21 10:54 METAR KMEM 211554Z 19011KT 10SM CLR 30/14 A3023 RMK AO2 SLP231 T03000144 $ =
2019-09-21 09:54 METAR KMEM 211454Z 18008KT 10SM CLR 28/15 A3024 RMK AO2 SLP235 T02780150 51014 $
                 =
2019-09-21 08:54 METAR KMEM 211354Z 18009KT 8SM FEW250 25/15 A3023 RMK AO2 SLP233 T02500150 $ =
2019-09-21 07:54 METAR KMEM 211254Z 17007KT 10SM FEW250 23/15 A3022 RMK AO2 SLP229 T02280150 $ =
2019-09-21 06:54 METAR KMEM 211154Z 17006KT 10SM FEW250 22/15 A3019 RMK AO2 SLP221 T02170150
                 10244 20211 51015 $ =
2019-09-21 05:54 METAR KMEM 211054Z 16006KT 10SM CLR 22/16 A3019 RMK AO2 SLP217 T02220156 $ =
2019-09-21 04:54 METAR KMEM 210954Z 16006KT 10SM FEW250 22/16 A3017 RMK AO2 SLP211 T02220161 $ =
2019-09-21 03:54 METAR KMEM 210854Z 17005KT 10SM FEW250 22/17 A3015 RMK AO2 SLP206 T02220172
                 51001 $ =
2019-09-21 02:54 METAR KMEM 210754Z 19005KT 10SM CLR 22/18 A3015 RMK AO2 SLP206 T02170178 $ =
2019-09-21 01:54 METAR KMEM 210654Z 18008KT 10SM CLR 23/18 A3015 RMK AO2 SLP206 T02280178 $ =
2019-09-21 00:54 METAR KMEM 210554Z 17009KT 10SM FEW150 24/18 A3015 RMK AO2 SLP205 T02440178
                 10289 20239 403220239 58001 $ =
2019-09-20 23:54 METAR KMEM 210454Z 16009KT 10SM FEW140 SCT250 25/18 A3016 RMK AO2 SLP208
                 T02500183 $ =
2019-09-20 22:54 METAR KMEM 210354Z 16009KT 10SM FEW140 SCT250 26/19 A3016 RMK AO2 SLP208
                 T02560189 $ =
2019-09-20 21:54 METAR KMEM 210254Z 16009KT 10SM FEW140 BKN250 27/18 A3015 RMK AO2 SLP206
                 T02670183 51014 $ =
2019-09-20 20:54 METAR KMEM 210154Z 15008KT 10SM FEW140 BKN250 27/18 A3014 RMK AO2 SLP203
                 T02720183 $ =
2019-09-20 19:54 METAR KMEM 210054Z 14006KT 10SM FEW140 BKN250 28/18 A3013 RMK AO2 SLP198
                 T02830183 $ =
2019-09-20 18:54 METAR KMEM 202354Z 17005KT 10SM BKN250 29/18 A3011 RMK AO2 SLP192 T02890178
                 10322 20283 56003 $ =
2019-09-20 17:54 METAR KMEM 202254Z 18008KT 10SM FEW047 BKN250 29/18 A3011 RMK AO2 SLP193
                 T02940178 $ =
2019-09-20 16:54 METAR KMEM 202154Z 17008KT 10SM FEW048 BKN250 30/19 A3012 RMK AO2 SLP194
                 T03000189 $ =
2019-09-20 15:54 METAR KMEM 202054Z 21011KT 10SM SCT048 BKN250 31/19 A3012 RMK AO2 SLP195
                 T03110189 56012 $ =
2019-09-20 14:54 METAR KMEM 201954Z 18011KT 10SM SCT049 BKN250 31/19 A3013 RMK AO2 SLP197
                 T03060194 $ =
2019-09-20 13:54 METAR KMEM 201854Z 19009G17KT 10SM SCT044 BKN250 32/21 A3014 RMK AO2 SLP201
                 T03220206 $ =
2019-09-20 12:54 METAR KMEM 201754Z 18011KT 10SM SCT039 BKN250 32/21 A3016 RMK AO2 SLP207
                 T03170206 10317 20244 58003 $ =
2019-09-20 11:54 METAR KMEM 201654Z 19013KT 10SM SCT028 BKN250 30/21 A3017 RMK AO2 SLP213
                 T03000206 $ =
2019-09-20 10:54 METAR KMEM 201554Z 16014G22KT 10SM SCT026 BKN250 29/21 A3018 RMK AO2 SLP214
                 T02890211 $ =
2019-09-20 10:18 METAR KMEM 201518Z 17014G20KT 10SM BKN026 28/22 A3016 RMK AO2 T02780217 $ =
2019-09-20 09:54 METAR KMEM 201454Z 18014G19KT 10SM SCT020 SCT250 28/22 A3016 RMK AO2 SLP210
                 T02830217 51014 $ =
2019-09-20 08:54 METAR KMEM 201354Z 15011KT 10SM FEW015 FEW060 SCT250 26/22 A3016 RMK AO2 SLP207
                 T02610217 $ =
2019-09-20 07:54 METAR KMEM 201254Z 15006KT 10SM FEW015 FEW060 SCT150 25/22 A3014 RMK AO2 SLP203
                 T02500222 $ =
2019-09-20 06:54 METAR KMEM 201154Z 17006KT 10SM BKN047 OVC250 24/22 A3012 RMK AO2 SLP197
                 T02440222 10261 20244 53016 $ =
2019-09-20 05:54 METAR KMEM 201054Z 14005KT 10SM BKN170 24/22 A3010 RMK AO2 SLP188 T02440222 $ =
2019-09-20 04:54 METAR KMEM 200954Z 14008KT 10SM FEW065 BKN160 25/22 A3008 RMK AO2 SLP181
                 T02500222 $ =
2019-09-20 03:54 METAR KMEM 200854Z 16008KT 10SM FEW043 FEW050 SCT250 26/22 A3008 RMK AO2 SLP179
                 T02560222 51006 $ =
2019-09-20 02:54 METAR KMEM 200754Z 13004KT 10SM FEW180 BKN250 26/22 A3007 RMK AO2 SLP179
                 T02560222 $ =
2019-09-20 01:54 METAR KMEM 200654Z 13005KT 10SM FEW160 BKN250 26/22 A3007 RMK AO2 SLP176
                 T02610222 $ =
2019-09-20 00:54 METAR KMEM 200554Z 16007KT 10SM BKN160 BKN250 26/22 A3006 RMK AO2 SLP173
                 T02610222 10294 20261 403560250 51003 $ =
2019-09-19 23:54 METAR KMEM 200454Z 15007KT 10SM FEW120 BKN160 BKN220 27/22 A3006 RMK AO2 SLP173
                 T02670222 $ =
2019-09-19 22:54 METAR KMEM 200354Z 16007KT 10SM FEW120 BKN160 27/22 A3006 RMK AO2 SLP173
                 T02670217 $ =
2019-09-19 21:54 METAR KMEM 200254Z 14006KT 10SM FEW120 SCT150 BKN220 27/22 A3005 RMK AO2 SLP171
                 T02720217 51017 $ =
2019-09-19 20:54 METAR KMEM 200154Z 16010KT 10SM FEW110 SCT150 OVC220 28/22 A3005 RMK AO2 SLP170
                 T02780217 $ =
2019-09-19 19:54 METAR KMEM 200054Z 16014G20KT 10SM FEW110 SCT150 BKN250 28/22 A3003 RMK AO2
                 SLP164 T02830217 $ =
2019-09-19 18:54 METAR KMEM 192354Z 14007KT 10SM FEW050 SCT150 BKN250 29/21 A3000 RMK AO2 SLP153
                 T02940211 10356 20294 53009 $ =
2019-09-19 17:54 METAR KMEM 192254Z 08013KT 10SM FEW050 SCT150 BKN250 31/20 A2999 RMK AO2 LTG
                 DSNT SW SLP150 T03060200 $ =
2019-09-19 16:54 METAR KMEM 192154Z 12012G17KT 10SM SCT050CB BKN100 BKN250 31/21 A2997 RMK AO2
                 LTG DSNT NE AND E AND SW TSB11E51 SLP145 CB N MOV NW CB E QSTNRY T03060211 $ =
2019-09-19 16:12 METAR KMEM 192112Z 16013G18KT 10SM TS SCT050CB BKN100 BKN250 32/18 A2998 RMK AO2
                 LTG DSNT NE AND E TSB11 OCNL LTGICCC E-SE TS E-SE MOV W T03220183 $ =
2019-09-19 15:54 METAR KMEM 192054Z 12009G17KT 10SM SCT055CB BKN100 BKN150 33/19 A2997 RMK AO2
                 LTG DSNT NE-S SLP144 CB SE-S MOV S T03280189 58020 $ =
2019-09-19 15:47 METAR KMEM 192047Z 13014G17KT 10SM SCT055CB BKN100 BKN150 33/19 A2997 RMK AO2
                 LTG DSNT S CB SE-S MOV S T03330194 $ =
2019-09-19 15:27 METAR KMEM 192027Z VRB05KT 10SM SCT055CB BKN095 BKN150 34/19 A2998 RMK AO2 CB SE
                 AND DSNT S T03390189 $ =
2019-09-19 14:54 METAR KMEM 191954Z 05008KT 10SM SCT055 BKN095 BKN150 34/21 A3000 RMK AO2 SLP152
                 T03440206 $ =
2019-09-19 13:54 METAR KMEM 191854Z 10005KT 10SM SCT055 36/20 A3002 RMK AO2 SLP159 T03560200 $ =
2019-09-19 12:54 METAR KMEM 191754Z 08006KT 10SM CLR 34/22 A3003 RMK AO2 SLP164 T03440222 10350
                 20250 58001 $ =
2019-09-19 11:54 METAR KMEM 191654Z 15006KT 10SM CLR 33/22 A3005 RMK AO2 SLP169 T03280217 $ =
2019-09-19 10:54 METAR KMEM 191554Z 18006KT 10SM CLR 31/22 A3005 RMK AO2 SLP171 T03110222 $ =
2019-09-19 09:54 METAR KMEM 191454Z 14009KT 10SM CLR 29/22 A3004 RMK AO2 SLP166 T02940217 52013 $
                 =
2019-09-19 08:54 METAR KMEM 191354Z 15008KT 10SM CLR 28/21 A3002 RMK AO2 SLP161 T02780211 $ =
2019-09-19 07:54 METAR KMEM 191254Z 14007KT 10SM FEW250 26/19 A3001 RMK AO2 SLP157 T02610194 $ =
2019-09-19 06:54 METAR KMEM 191154Z 14004KT 10SM FEW250 25/18 A3000 RMK AO2 SLP153 T02500178
                 10278 20250 52010 $ =
2019-09-19 05:54 METAR KMEM 191054Z 11004KT 10SM CLR 25/18 A2999 RMK AO2 SLP150 T02500183 $ =
2019-09-19 04:54 METAR KMEM 190954Z 07005KT 10SM CLR 26/18 A2998 RMK AO2 SLP145 T02610183 $ =
2019-09-19 03:54 METAR KMEM 190854Z 11005KT 10SM CLR 28/18 A2997 RMK AO2 SLP143 T02780183 58004 $
                 =
2019-09-19 02:54 METAR KMEM 190754Z 10005KT 10SM CLR 27/19 A2998 RMK AO2 SLP145 T02720189 $ =
2019-09-19 01:54 METAR KMEM 190654Z 11005KT 10SM CLR 27/20 A2998 RMK AO2 SLP146 T02720200 $ =
2019-09-19 00:54 METAR KMEM 190554Z 09007KT 10SM CLR 27/20 A2998 RMK AO2 SLP147 T02720200 10333
                 20272 403720244 58000 $ =
2019-09-18 23:54 METAR KMEM 190454Z 07007KT 10SM CLR 29/20 A2999 RMK AO2 SLP148 T02890200 $ =
2019-09-18 22:54 METAR KMEM 190354Z 06008KT 10SM CLR 30/20 A2998 RMK AO2 SLP148 T03000200 $ =
2019-09-18 21:54 METAR KMEM 190254Z 06008KT 10SM CLR 31/20 A2998 RMK AO2 SLP148 T03060200 53007 $
                 =
2019-09-18 20:54 METAR KMEM 190154Z 06007KT 10SM CLR 31/20 A2998 RMK AO2 SLP146 T03110200 $ =
2019-09-18 19:54 METAR KMEM 190054Z 05008KT 10SM CLR 32/19 A2997 RMK AO2 SLP142 T03220194 $ =
2019-09-18 18:54 METAR KMEM 182354Z 04008KT 10SM FEW075 33/19 A2996 RMK AO2 SLP140 T03330189
                 10372 20333 53001 $ =
2019-09-18 17:54 METAR KMEM 182254Z 03007KT 10SM FEW075 35/18 A2996 RMK AO2 SLP139 T03500183 $ =
2019-09-18 16:54 METAR KMEM 182154Z 02005KT 10SM FEW075 36/16 A2995 RMK AO2 SLP136 T03610156 $ =
2019-09-18 15:54 METAR KMEM 182054Z 03006KT 10SM FEW075 SCT250 37/17 A2996 RMK AO2 SLP139
                 T03670167 56019 $ =
2019-09-18 14:54 METAR KMEM 181954Z 02009KT 10SM FEW070 SCT250 37/15 A2997 RMK AO2 SLP144
                 T03720150 $ =
2019-09-18 13:54 METAR KMEM 181854Z 04007KT 10SM FEW065 37/16 A3000 RMK AO2 SLP152 T03670156 $ =
2019-09-18 12:54 METAR KMEM 181754Z 21003KT 10SM FEW060 36/18 A3001 RMK AO2 SLP158 T03560183
                 10367 20250 58003 $ =
2019-09-18 11:54 METAR KMEM 181654Z VRB03KT 10SM FEW060 36/18 A3002 RMK AO2 SLP159 T03610183 $ =
2019-09-18 10:54 METAR KMEM 181554Z 00000KT 10SM CLR 34/21 A3002 RMK AO2 SLP161 T03390206 $ =
2019-09-18 09:54 METAR KMEM 181454Z 20004KT 10SM CLR 32/21 A3002 RMK AO2 SLP161 T03220206 51006 $
                 =
2019-09-18 08:54 METAR KMEM 181354Z 16003KT 10SM CLR 29/20 A3002 RMK AO2 SLP159 T02940200 $ =
2019-09-18 07:54 METAR KMEM 181254Z 00000KT 10SM CLR 27/21 A3001 RMK AO2 SLP157 T02670206 $ =
2019-09-18 06:54 METAR KMEM 181154Z 09003KT 10SM CLR 25/20 A3000 RMK AO2 SLP154 T02500200 10283
                 20244 53007 $ =
2019-09-18 05:54 METAR KMEM 181054Z 08004KT 10SM CLR 25/20 A2999 RMK AO2 SLP149 T02500200 $ =
2019-09-18 04:54 METAR KMEM 180954Z 00000KT 10SM CLR 26/20 A2998 RMK AO2 SLP147 T02610200 $ =
2019-09-18 03:54 METAR KMEM 180854Z VRB06KT 10SM CLR 28/19 A2998 RMK AO2 SLP148 T02830194 58003 $
                 =
2019-09-18 02:54 METAR KMEM 180754Z 00000KT 10SM CLR 25/20 A2999 RMK AO2 SLP149 T02500200 $ =
2019-09-18 01:54 METAR KMEM 180654Z 00000KT 10SM CLR 26/20 A2999 RMK AO2 SLP152 T02560200 $ =
2019-09-18 00:54 METAR KMEM 180554Z 00000KT 10SM CLR 27/19 A2999 RMK AO2 SLP150 T02720189 10328
                 20250 403720233 51001 $ =
2019-09-17 23:54 METAR KMEM 180454Z 00000KT 10SM CLR 27/21 A2999 RMK AO2 SLP150 T02670206 $ =
2019-09-17 22:54 METAR KMEM 180354Z 00000KT 10SM CLR 27/20 A2999 RMK AO2 SLP150 T02720200 $ =
2019-09-17 21:54 METAR KMEM 180254Z 00000KT 10SM CLR 28/19 A2999 RMK AO2 SLP149 T02780194 53009 $
                 =
2019-09-17 20:54 METAR KMEM 180154Z 00000KT 10SM FEW250 29/19 A2998 RMK AO2 SLP145 T02940189 $ =
2019-09-17 19:54 METAR KMEM 180054Z 36003KT 10SM FEW250 32/18 A2997 RMK AO2 SLP142 T03170178 $ =
2019-09-17 18:54 METAR KMEM 172354Z 02005KT 10SM SCT250 33/17 A2996 RMK AO2 SLP140 T03280167
                 10372 20328 56007 $ =
2019-09-17 17:54 METAR KMEM 172254Z VRB06KT 10SM FEW075 SCT250 35/15 A2996 RMK AO2 SLP141
                 T03500150 $ =
2019-09-17 16:54 METAR KMEM 172154Z 30005KT 10SM FEW075 SCT250 35/16 A2997 RMK AO2 SLP144
                 T03500156 $ =
2019-09-17 15:54 METAR KMEM 172054Z 33007KT 10SM FEW075 SCT250 34/22 A2998 RMK AO2 SLP146
                 T03440222 56024 $ =
2019-09-17 14:54 METAR KMEM 171954Z 05003KT 10SM FEW065 BKN250 37/16 A3000 RMK AO2 SLP154
                 T03720161 $ =
2019-09-17 13:54 METAR KMEM 171854Z 29004KT 10SM FEW065 BKN250 37/17 A3003 RMK AO2 SLP163
                 T03670167 =
2019-09-17 12:54 METAR KMEM 171754Z 00000KT 10SM FEW060 SCT250 36/18 A3005 RMK AO2 SLP171
                 T03560183 10361 20244 58007 =
2019-09-17 11:54 METAR KMEM 171654Z 00000KT 10SM SCT250 35/18 A3007 RMK AO2 SLP176 T03500183 =
2019-09-17 10:54 METAR KMEM 171554Z 03004KT 10SM FEW250 34/19 A3007 RMK AO2 SLP178 T03390189 =
2019-09-17 09:54 METAR KMEM 171454Z 00000KT 10SM FEW250 32/19 A3007 RMK AO2 SLP178 T03220189
                 51008 =
2019-09-17 08:54 METAR KMEM 171354Z 07004KT 10SM FEW250 29/19 A3006 RMK AO2 SLP175 T02940194 =
2019-09-17 07:54 METAR KMEM 171254Z 09003KT 10SM CLR 27/20 A3006 RMK AO2 SLP173 T02720200 =
2019-09-17 06:54 METAR KMEM 171154Z 00000KT 10SM FEW250 25/20 A3005 RMK AO2 SLP169 T02500200
                 10289 20233 53013 =
2019-09-17 05:54 METAR KMEM 171054Z VRB03KT 10SM CLR 26/20 A3003 RMK AO2 SLP163 T02560200 =
2019-09-17 04:54 METAR KMEM 170954Z 00000KT 10SM CLR 24/20 A3001 RMK AO2 SLP157 T02440200 =
2019-09-17 03:54 METAR KMEM 170854Z 00000KT 10SM CLR 26/18 A3001 RMK AO2 SLP157 T02560183 56002 =
2019-09-17 02:54 METAR KMEM 170754Z 12003KT 10SM CLR 28/19 A3001 RMK AO2 SLP157 T02780189 =
2019-09-17 01:54 METAR KMEM 170654Z 10004KT 10SM CLR 28/20 A3001 RMK AO2 SLP158 T02780200 =
2019-09-17 00:54 METAR KMEM 170554Z 09004KT 10SM FEW250 29/19 A3002 RMK AO2 SLP159 T02890194
                 10322 20272 403780233 58002 =
2019-09-16 23:54 METAR KMEM 170454Z 04004KT 10SM FEW250 29/19 A3002 RMK AO2 SLP160 T02940194 =
2019-09-16 22:54 METAR KMEM 170354Z 06004KT 10SM FEW250 29/19 A3002 RMK AO2 SLP160 T02890194 =
2019-09-16 21:54 METAR KMEM 170254Z 05003KT 10SM CLR 29/19 A3002 RMK AO2 SLP161 T02940194 53006 =
2019-09-16 20:54 METAR KMEM 170154Z 00000KT 10SM CLR 30/19 A3002 RMK AO2 SLP159 T03000189 =
2019-09-16 19:54 METAR KMEM 170054Z 00000KT 10SM FEW050 FEW250 31/19 A3001 RMK AO2 SLP156
                 T03110194 =
2019-09-16 16:54 METAR KMEM 162154Z 00000KT 10SM FEW065 37/16 A3001 RMK AO2 SLP157 T03670161 =
2019-09-16 15:54 METAR KMEM 162054Z 23003KT 10SM SCT075 36/17 A3002 RMK AO2 SLP160 T03610172
                 56023 =
2019-09-16 14:54 METAR KMEM 161954Z 08005KT 10SM SCT070 37/17 A3003 RMK AO2 SLP165 T03720172 =
2019-09-16 03:54 METAR KMEM 160854Z 06003KT 10SM CLR 26/22 A3008 RMK AO2 SLP179 T02560217 53002 $
                 =
2019-09-16 02:54 METAR KMEM 160754Z 00000KT 10SM CLR 24/21 A3007 RMK AO2 SLP176 T02390211 $ =
2019-09-16 01:54 METAR KMEM 160654Z 00000KT 10SM CLR 24/21 A3007 RMK AO2 SLP176 T02440206 $ =
2019-09-15 23:54 METAR KMEM 160454Z 00000KT 10SM CLR 26/21 A3007 RMK AO2 SLP179 T02610206 $ =
2019-09-15 22:54 METAR KMEM 160354Z 00000KT 10SM CLR 27/21 A3007 RMK AO2 SLP178 T02720206 $ =
2019-09-15 21:54 METAR KMEM 160254Z 00000KT 10SM CLR 29/20 A3007 RMK AO2 SLP177 T02890200 53012 $
                 =
2019-09-15 20:54 METAR KMEM 160154Z 20003KT 10SM CLR 29/20 A3006 RMK AO2 SLP173 T02940200 $ =
2019-09-15 19:54 METAR KMEM 160054Z 00000KT 10SM FEW250 30/19 A3004 RMK AO2 SLP167 T03000194 $ =
2019-09-15 18:54 METAR KMEM 152354Z 10005KT 10SM FEW055 FEW250 33/18 A3003 RMK AO2 SLP165
                 T03330183 10361 20333 55003 $ =
2019-09-15 16:54 METAR KMEM 152154Z 06006KT 10SM FEW060 36/18 A3003 RMK AO2 SLP163 T03560178 $ =
2019-09-15 15:54 METAR KMEM 152054Z 10006KT 10SM FEW060 36/19 A3004 RMK AO2 SLP168 T03560189
                 56028 $ =
2019-09-15 14:54 METAR KMEM 151954Z 12004KT 10SM FEW060 36/19 A3007 RMK AO2 SLP177 T03610189 $ =
2019-09-15 13:54 METAR KMEM 151854Z 02003KT 10SM SCT055 35/19 A3010 RMK AO2 SLP187 T03500194 $ =
2019-09-15 12:54 METAR KMEM 151754Z 22003KT 10SM SCT055 34/21 A3013 RMK AO2 SLP197 T03440211
                 10344 20239 58010 $ =
2019-09-15 11:54 METAR KMEM 151654Z 00000KT 10SM FEW050 FEW250 33/22 A3014 RMK AO2 SLP202
                 T03280222 $ =
2019-09-15 10:54 METAR KMEM 151554Z VRB05KT 10SM FEW250 32/22 A3015 RMK AO2 SLP206 T03170222 $ =
2019-09-15 09:54 METAR KMEM 151454Z 17008KT 10SM FEW250 31/23 A3016 RMK AO2 SLP208 T03060228
                 51012 $ =
2019-09-15 08:54 METAR KMEM 151354Z 14004KT 10SM FEW250 29/22 A3016 RMK AO2 SLP207 T02890217 $ =
2019-09-15 07:54 METAR KMEM 151254Z 07004KT 10SM FEW250 26/22 A3014 RMK AO2 SLP200 T02610217 $ =
2019-09-15 06:54 METAR KMEM 151154Z 09003KT 10SM FEW250 24/21 A3012 RMK AO2 SLP196 T02390206
                 10267 20239 53002 $ =
2019-09-15 05:54 METAR KMEM 151054Z 00000KT 10SM CLR 24/21 A3012 RMK AO2 SLP196 T02440206 $ =
2019-09-15 04:54 METAR KMEM 150954Z 10005KT 10SM CLR 24/21 A3011 RMK AO2 SLP192 T02440206 $ =
2019-09-15 03:54 METAR KMEM 150854Z 09004KT 10SM CLR 25/21 A3012 RMK AO2 SLP193 T02500206 58006 $
                 =
2019-09-15 02:54 METAR KMEM 150754Z VRB04KT 10SM CLR 26/21 A3012 RMK AO2 SLP196 T02610206 $ =
2019-09-15 01:54 METAR KMEM 150654Z 07004KT 10SM CLR 27/20 A3014 RMK AO2 SLP199 T02670200 $ =
2019-09-15 00:54 METAR KMEM 150554Z 00000KT 10SM FEW250 27/20 A3014 RMK AO2 SLP199 T02670200
                 10322 20261 403560228 58003 $ =
2019-09-14 23:54 METAR KMEM 150454Z 06006KT 10SM FEW250 28/20 A3014 RMK AO2 SLP201 T02780200 $ =
2019-09-14 21:54 METAR KMEM 150254Z 05006KT 10SM FEW048 SCT250 29/20 A3015 RMK AO2 SLP204
                 T02890200 53013 $ =
2019-09-14 20:54 METAR KMEM 150154Z 06006KT 10SM FEW250 29/19 A3013 RMK AO2 SLP199 T02940194 $ =
2019-09-14 19:54 METAR KMEM 150054Z 05007KT 10SM FEW250 31/19 A3012 RMK AO2 SLP194 T03110189 $ =
2019-09-14 18:54 METAR KMEM 142354Z 03008KT 10SM FEW250 32/19 A3011 RMK AO2 SLP191 T03220189
                 10356 20322 55004 $ =
2019-09-14 17:54 METAR KMEM 142254Z 02009KT 10SM FEW250 34/19 A3011 RMK AO2 SLP190 T03390189 $ =
2019-09-14 16:54 METAR KMEM 142154Z 05009KT 10SM FEW180 SCT250 34/19 A3011 RMK AO2 SLP190
                 T03440189 $ =
2019-09-14 15:54 METAR KMEM 142054Z 01004KT 10SM FEW180 35/18 A3012 RMK AO2 SLP195 T03500183
                 56021 $ =
2019-09-14 14:54 METAR KMEM 141954Z 07006KT 10SM FEW180 35/19 A3014 RMK AO2 SLP201 T03500189 $ =
2019-09-14 13:54 METAR KMEM 141854Z 07008KT 10SM FEW150 34/19 A3016 RMK AO2 SLP208 T03440194 $ =
2019-09-14 12:54 METAR KMEM 141754Z 06007KT 10SM FEW150 33/20 A3018 RMK AO2 SLP215 T03330200
                 10339 20228 58010 $ =
2019-09-14 11:54 METAR KMEM 141654Z 06009KT 10SM FEW165 32/19 A3020 RMK AO2 SLP222 T03220189 $ =
2019-09-14 10:54 METAR KMEM 141554Z 06008KT 10SM FEW165 31/17 A3022 RMK AO2 SLP226 T03060172 $ =
2019-09-14 09:54 METAR KMEM 141454Z 07008KT 10SM FEW110 28/15 A3021 RMK AO2 SLP225 T02780150
                 50003 $ =
2019-09-14 08:54 METAR KMEM 141354Z 07010KT 10SM FEW110 FEW250 26/16 A3022 RMK AO2 SLP229
                 T02610156 $ =
2019-09-14 07:54 METAR KMEM 141254Z 05006KT 10SM FEW110 FEW250 24/16 A3021 RMK AO2 SLP226
                 T02390161 $ =
2019-09-14 06:54 METAR KMEM 141154Z 05007KT 10SM FEW110 FEW250 23/16 A3020 RMK AO2 SLP224
                 T02330156 10272 20233 52014 $ =
2019-09-14 05:54 METAR KMEM 141054Z 05005KT 10SM FEW140 24/16 A3019 RMK AO2 SLP219 T02390156 $ =
2019-09-14 04:54 METAR KMEM 140954Z VRB06KT 10SM FEW140 24/15 A3017 RMK AO2 SLP212 T02440150 $ =
2019-09-14 03:54 METAR KMEM 140854Z 07009KT 10SM FEW150 26/15 A3016 RMK AO2 SLP208 T02560150
                 56001 $ =
2019-09-14 02:54 METAR KMEM 140754Z 06008KT 10SM CLR 26/16 A3016 RMK AO2 SLP209 T02560156 $ =
2019-09-14 01:54 METAR KMEM 140654Z 06007KT 10SM CLR 26/16 A3016 RMK AO2 SLP208 T02610161 $ =
2019-09-14 00:54 METAR KMEM 140554Z 05009KT 10SM CLR 27/17 A3017 RMK AO2 SLP210 T02720172 10322
                 20272 403610233 51006 $ =
2019-09-13 23:54 METAR KMEM 140454Z 05010KT 10SM CLR 28/19 A3016 RMK AO2 SLP209 T02780194 =
2019-09-13 22:54 METAR KMEM 140354Z 03010KT 10SM CLR 29/21 A3016 RMK AO2 SLP208 T02890206 =
2019-09-13 21:54 METAR KMEM 140254Z 04006KT 10SM CLR 29/21 A3015 RMK AO2 SLP204 T02940206 53012 =
2019-09-13 20:54 METAR KMEM 140154Z 02007KT 10SM CLR 30/20 A3014 RMK AO2 SLP199 T03000200 =
2019-09-13 19:54 METAR KMEM 140054Z 36005KT 10SM FEW250 31/19 A3012 RMK AO2 SLP194 T03060194 =
2019-09-13 18:54 METAR KMEM 132354Z 01007KT 10SM FEW060 32/19 A3011 RMK AO2 SLP192 T03220189
                 10361 20322 55002 =
2019-09-13 17:54 METAR KMEM 132254Z 34007KT 10SM FEW060 34/19 A3011 RMK AO2 SLP191 T03390189 =
2019-09-13 16:54 METAR KMEM 132154Z 36006KT 10SM FEW060 35/19 A3011 RMK AO2 SLP191 T03500189 =
2019-09-13 15:54 METAR KMEM 132054Z 30008KT 10SM FEW050 36/19 A3012 RMK AO2 SLP194 T03560189
                 56018 =
2019-09-13 14:54 METAR KMEM 131954Z 29007KT 10SM FEW055 34/21 A3014 RMK AO2 SLP200 T03390206 =
2019-09-13 13:54 METAR KMEM 131854Z 30007KT 260V330 10SM SCT055 35/21 A3015 RMK AO2 SLP205
                 T03500206 =
2019-09-13 12:54 METAR KMEM 131754Z 33004KT 10SM SCT055 33/21 A3017 RMK AO2 SLP212 T03330206
                 10356 20244 58001 =
2019-09-13 11:54 METAR KMEM 131654Z 30007KT 10SM FEW045 34/22 A3018 RMK AO2 SLP214 T03440222 =
2019-09-13 10:54 METAR KMEM 131554Z 26006KT 10SM CLR 33/22 A3018 RMK AO2 SLP215 T03280222 =
2019-09-13 09:54 METAR KMEM 131454Z 25003KT 10SM FEW140 32/22 A3018 RMK AO2 SLP213 T03170222
                 51016 =
2019-09-13 08:54 METAR KMEM 131354Z 23003KT 10SM FEW135 29/22 A3016 RMK AO2 SLP210 T02890217 =
2019-09-13 07:54 METAR KMEM 131254Z 00000KT 10SM FEW130 27/22 A3014 RMK AO2 SLP204 T02670217 =
2019-09-13 06:54 METAR KMEM 131154Z 00000KT 10SM SCT150 SCT250 24/21 A3013 RMK AO2 SLP198
                 T02440211 10267 20233 53008 =
2019-09-13 05:54 METAR KMEM 131054Z 00000KT 10SM FEW130 24/21 A3012 RMK AO2 SLP194 T02440206 =
2019-09-13 04:54 METAR KMEM 130954Z COR 19003KT 10SM SCT130 25/22 A3011 RMK AO2 SLP190 T02500217
                 =
2019-09-13 03:54 METAR KMEM 130854Z 00000KT 10SM SCT130 26/22 A3011 RMK AO2 SLP189 T02560217
                 58003 =
2019-09-13 02:54 METAR KMEM 130754Z 19004KT 10SM FEW250 25/22 A3011 RMK AO2 SLP189 T02500217 =
2019-09-13 01:54 METAR KMEM 130654Z 00000KT 10SM CLR 26/22 A3012 RMK AO2 SLP193 T02610217 =
2019-09-13 00:54 METAR KMEM 130554Z 00000KT 10SM FEW250 26/22 A3011 RMK AO2 SLP192 T02610217
                 10317 20261 403500244 51003 =
2019-09-12 23:54 METAR KMEM 130454Z 00000KT 10SM CLR 27/22 A3011 RMK AO2 SLP190 T02720217 =
2019-09-12 22:54 METAR KMEM 130354Z 00000KT 10SM CLR 28/22 A3011 RMK AO2 SLP192 T02780217 =
2019-09-12 21:54 METAR KMEM 130254Z 19003KT 10SM CLR 27/22 A3010 RMK AO2 SLP188 T02720217 53012 =
2019-09-12 20:54 METAR KMEM 130154Z 19006KT 10SM CLR 28/22 A3008 RMK AO2 SLP182 T02780217 =
2019-09-12 19:54 METAR KMEM 130054Z 15007KT 10SM FEW060 30/21 A3008 RMK AO2 SLP181 T03000211 =
2019-09-12 18:54 METAR KMEM 122354Z 24003KT 10SM FEW060 32/21 A3007 RMK AO2 SLP177 T03170206
                 10350 20317 58006 =
2019-09-12 17:54 METAR KMEM 122254Z 23005KT 10SM FEW060 FEW250 33/20 A3008 RMK AO2 SLP181
                 T03330200 =
2019-09-12 16:54 METAR KMEM 122154Z 23005KT 10SM FEW060 FEW250 34/21 A3007 RMK AO2 LTG DSNT E AND
                 SE SLP178 T03390206 =
2019-09-12 15:54 METAR KMEM 122054Z 18006KT 10SM FEW060 SCT250 34/20 A3009 RMK AO2 SLP182
                 T03440200 58019 =
2019-09-12 14:54 METAR KMEM 121954Z 20008KT 10SM FEW055 SCT250 34/21 A3011 RMK AO2 SLP191
                 T03440211 =
2019-09-12 13:54 METAR KMEM 121854Z VRB05KT 10SM SCT050 34/21 A3013 RMK AO2 SLP198 T03390211 =
2019-09-12 12:54 METAR KMEM 121754Z 20006KT 10SM SCT050 33/22 A3014 RMK AO2 SLP202 T03330217
                 10339 20250 58011 =
2019-09-12 11:54 METAR KMEM 121654Z 28007KT 10SM FEW040 33/22 A3016 RMK AO2 SLP208 T03330222 =
2019-09-12 10:54 METAR KMEM 121554Z 00000KT 10SM FEW040 32/22 A3018 RMK AO2 SLP213 T03220222 =
2019-09-12 09:54 METAR KMEM 121454Z 00000KT 10SM CLR 31/24 A3018 RMK AO2 SLP213 T03110239 53009 =
2019-09-12 08:54 METAR KMEM 121354Z 17005KT 10SM CLR 28/23 A3017 RMK AO2 SLP211 T02830233 =
2019-09-12 07:54 METAR KMEM 121254Z 00000KT 10SM CLR 26/23 A3016 RMK AO2 SLP208 T02610228 =
2019-09-12 06:54 METAR KMEM 121154Z 13003KT 10SM CLR 25/22 A3015 RMK AO2 SLP205 T02500222 10272
                 20244 53021 =
2019-09-12 05:54 METAR KMEM 121054Z 14003KT 10SM CLR 26/22 A3013 RMK AO2 SLP197 T02560222 =
2019-09-12 04:54 METAR KMEM 120954Z 18005KT 10SM CLR 24/22 A3010 RMK AO2 SLP189 T02440217 =
2019-09-12 03:54 METAR KMEM 120854Z 18003KT 10SM CLR 25/22 A3009 RMK AO2 SLP182 T02500217 55005 =
2019-09-12 02:54 METAR KMEM 120754Z 20004KT 10SM CLR 24/21 A3008 RMK AO2 SLP181 T02440211 =
2019-09-12 01:54 METAR KMEM 120654Z 16006KT 10SM CLR 26/21 A3010 RMK AO2 SLP188 T02610211 =
2019-09-12 00:54 METAR KMEM 120554Z 18004KT 10SM CLR 27/21 A3010 RMK AO2 SLP188 T02720211 10311
                 20267 403440239 56007 =
2019-09-11 23:54 METAR KMEM 120454Z 19006KT 10SM CLR 27/21 A3010 RMK AO2 SLP189 T02720206 =
2019-09-11 22:54 METAR KMEM 120354Z 19006KT 10SM CLR 27/21 A3012 RMK AO2 SLP193 T02720206 =
2019-09-11 21:54 METAR KMEM 120254Z 19005KT 10SM CLR 27/21 A3012 RMK AO2 SLP196 T02670211 53007 =
2019-09-11 20:54 METAR KMEM 120154Z 19004KT 10SM CLR 28/21 A3012 RMK AO2 SLP194 T02780206 =
2019-09-11 19:54 METAR KMEM 120054Z 18003KT 10SM FEW250 30/20 A3011 RMK AO2 SLP191 T03000200 =
2019-09-11 18:54 METAR KMEM 112354Z 21003KT 10SM FEW060 FEW150 31/20 A3010 RMK AO2 SLP189
                 T03110200 10344 20306 56007 =
2019-09-11 17:54 METAR KMEM 112254Z 22006KT 10SM FEW060 FEW250 33/21 A3010 RMK AO2 SLP189
                 T03280206 =
2019-09-11 16:54 METAR KMEM 112154Z 19009KT 10SM FEW060 FEW250 33/21 A3011 RMK AO2 SLP191
                 T03330206 =
2019-09-11 15:54 METAR KMEM 112054Z 22005KT 10SM SCT060 SCT250 33/21 A3012 RMK AO2 SLP196
                 T03280206 58025 =
2019-09-11 14:54 METAR KMEM 111954Z 20011KT 10SM SCT055 SCT250 34/21 A3015 RMK AO2 SLP204
                 T03390206 =
2019-09-11 13:54 METAR KMEM 111854Z 22012G15KT 10SM SCT048 SCT250 34/21 A3018 RMK AO2 SLP213
                 T03390211 =
2019-09-11 12:54 METAR KMEM 111754Z 21011KT 10SM SCT047 SCT060 34/21 A3020 RMK AO2 SLP220
                 T03390206 10339 20244 58009 =
2019-09-11 11:54 METAR KMEM 111654Z 20007KT 10SM SCT042 33/23 A3021 RMK AO2 SLP226 T03280228 =
2019-09-11 10:54 METAR KMEM 111554Z 22005KT 10SM FEW100 SCT250 32/23 A3023 RMK AO2 SLP230
                 T03170233 =
2019-09-11 09:54 METAR KMEM 111454Z 19003KT 10SM FEW100 SCT250 30/23 A3023 RMK AO2 SLP230
                 T03000228 51009 =
2019-09-11 08:54 METAR KMEM 111354Z 00000KT 10SM FEW100 SCT200 28/23 A3022 RMK AO2 SLP227
                 T02830228 =
2019-09-11 07:54 METAR KMEM 111254Z 17005KT 10SM FEW055 FEW200 26/22 A3021 RMK AO2 SLP227
                 T02560217 =
2019-09-11 06:54 METAR KMEM 111154Z 00000KT 10SM FEW060 FEW250 24/22 A3020 RMK AO2 SLP222
                 T02440217 10272 20239 53015 =
2019-09-11 05:54 METAR KMEM 111054Z 18004KT 10SM FEW250 24/22 A3018 RMK AO2 SLP215 T02440217 =
2019-09-11 04:54 METAR KMEM 110954Z 16005KT 10SM CLR 26/22 A3016 RMK AO2 SLP208 T02560217 =
2019-09-11 03:54 METAR KMEM 110854Z 15005KT 10SM CLR 26/22 A3015 RMK AO2 SLP206 T02560217 53002 =
2019-09-11 02:54 METAR KMEM 110754Z 17005KT 10SM CLR 26/21 A3014 RMK AO2 SLP201 T02610211 =
2019-09-11 01:54 METAR KMEM 110654Z 17006KT 10SM FEW200 26/22 A3015 RMK AO2 SLP205 T02610217 =
2019-09-11 00:54 METAR KMEM 110554Z 16005KT 10SM FEW250 27/22 A3015 RMK AO2 SLP205 T02720222
                 10317 20267 403390239 58003 =
2019-09-10 23:54 METAR KMEM 110454Z 16005KT 10SM FEW250 27/23 A3015 RMK AO2 SLP207 T02720228 =
2019-09-10 22:54 METAR KMEM 110354Z 13004KT 10SM CLR 28/22 A3016 RMK AO2 SLP209 T02830222 =
2019-09-10 21:54 METAR KMEM 110254Z 10007KT 10SM CLR 29/21 A3016 RMK AO2 SLP208 T02890211 53011 =
2019-09-10 20:54 METAR KMEM 110154Z 09007KT 10SM CLR 29/21 A3015 RMK AO2 SLP205 T02890211 =
2019-09-10 19:54 METAR KMEM 110054Z 08007KT 10SM FEW250 30/21 A3013 RMK AO2 SLP198 T03000211 =
2019-09-10 18:54 METAR KMEM 102354Z 08008KT 10SM FEW055 SCT250 32/21 A3012 RMK AO2 SLP197
                 T03170206 10339 20294 56007 =
2019-09-10 17:54 METAR KMEM 102254Z 21003KT 10SM FEW055 FEW250 33/21 A3013 RMK AO2 SLP196
                 T03280206 =
2019-09-10 16:54 METAR KMEM 102154Z 00000KT 10SM FEW055 FEW250 33/21 A3014 RMK AO2 SLP201
                 T03280206 =
2019-09-10 15:54 METAR KMEM 102054Z 32004KT 10SM SCT170 SCT250 34/20 A3015 RMK AO2 SLP203
                 T03390200 58014 =
2019-09-10 14:54 METAR KMEM 101954Z 00000KT 10SM BKN160 BKN250 32/21 A3016 RMK AO2 SLP208
                 T03220206 =
2019-09-10 13:54 METAR KMEM 101854Z 00000KT 10SM SCT120 BKN170 OVC250 31/20 A3018 RMK AO2 SLP215
                 T03060200 =
2019-09-10 12:54 METAR KMEM 101754Z 00000KT 10SM SCT120 BKN170 OVC250 29/21 A3019 RMK AO2 SLP218
                 T02940206 10294 20239 58003 =
2019-09-10 11:54 METAR KMEM 101654Z 21005KT 10SM SCT120 BKN190 OVC250 29/20 A3019 RMK AO2 SLP220
                 T02890200 =
2019-09-10 10:54 METAR KMEM 101554Z 19006KT 10SM SCT110 BKN180 OVC250 28/20 A3020 RMK AO2 SLP222
                 T02830200 =
2019-09-10 09:54 METAR KMEM 101454Z 18005KT 10SM SCT120 BKN180 BKN250 27/21 A3020 RMK AO2 SLP220
                 T02720211 51018 =
2019-09-10 08:54 METAR KMEM 101354Z 13004KT 10SM SCT120 BKN180 BKN250 26/21 A3018 RMK AO2 SLP216
                 T02610211 =
2019-09-10 07:54 METAR KMEM 101254Z 00000KT 10SM FEW006 SCT120 BKN180 BKN250 26/21 A3016 RMK AO2
                 SLP208 FU FEW006 T02560206 =
2019-09-10 07:47 METAR KMEM 101247Z 13003KT 10SM FEW006 SCT120 BKN180 BKN250 26/21 A3016 RMK AO2
                 FU FEW006 T02560206 =
2019-09-10 06:54 METAR KMEM 101154Z 20003KT 10SM BKN150 BKN250 24/21 A3014 RMK AO2 SLP202
                 T02440206 10267 20239 53012 =
2019-09-10 05:54 METAR KMEM 101054Z 15004KT 10SM BKN130 OVC250 26/20 A3013 RMK AO2 SLP196
                 T02560200 =
2019-09-10 04:54 METAR KMEM 100954Z 00000KT 10SM OVC250 25/19 A3011 RMK AO2 SLP191 T02500194 =
2019-09-10 03:54 METAR KMEM 100854Z 00000KT 10SM BKN250 25/19 A3011 RMK AO2 SLP189 T02500194
                 57003 =
2019-09-10 02:54 METAR KMEM 100754Z 33003KT 10SM OVC250 25/19 A3010 RMK AO2 SLP188 T02500194 =
2019-09-10 01:54 METAR KMEM 100654Z 28003KT 10SM OVC250 26/21 A3012 RMK AO2 SLP194 T02560206 =
2019-09-10 00:54 METAR KMEM 100554Z 23007G17KT 180V250 10SM OVC250 27/21 A3012 RMK AO2 SLP193
                 T02670206 10333 20267 403670244 51013 =
2019-09-09 23:54 METAR KMEM 100454Z 21013G21KT 170V240 10SM FEW150 BKN250 28/21 A3011 RMK AO2
                 SLP192 T02830211 =
2019-09-09 22:54 METAR KMEM 100354Z 14006KT 10SM SCT250 29/21 A3009 RMK AO2 SLP183 T02940206 =
2019-09-09 21:54 METAR KMEM 100254Z 14005KT 10SM FEW250 31/21 A3008 RMK AO2 SLP180 T03060211
                 51016 =
2019-09-09 20:54 METAR KMEM 100154Z 13007KT 10SM FEW250 32/21 A3006 RMK AO2 SLP175 T03170206 =
2019-09-09 19:54 METAR KMEM 100054Z 11007KT 10SM FEW250 32/20 A3005 RMK AO2 SLP170 T03220200 =
2019-09-09 18:54 METAR KMEM 092354Z 11009KT 10SM FEW060 FEW250 33/21 A3003 RMK AO2 SLP164
                 T03330206 10367 20333 55002 =
2019-09-09 17:54 METAR KMEM 092254Z 12007KT 10SM FEW060 35/19 A3002 RMK AO2 SLP162 T03500189 =
2019-09-09 16:54 METAR KMEM 092154Z 10007KT 060V130 10SM SCT065 36/20 A3002 RMK AO2 SLP161
                 T03610200 =
2019-09-09 15:54 METAR KMEM 092054Z 00000KT 10SM SCT060 35/21 A3004 RMK AO2 SLP167 T03500206
                 58020 =
2019-09-09 14:54 METAR KMEM 091954Z 22004KT 10SM SCT060 SCT250 35/22 A3007 RMK AO2 SLP175
                 T03500217 =
2019-09-09 13:54 METAR KMEM 091854Z 13004KT 10SM FEW050 SCT250 35/22 A3009 RMK AO2 SLP184
                 T03500217 =
2019-09-09 12:54 METAR KMEM 091754Z 00000KT 10SM FEW050 SCT250 34/22 A3010 RMK AO2 SLP187
                 T03390222 10339 20250 58008 =
2019-09-09 11:54 METAR KMEM 091654Z 20005KT 10SM FEW250 33/22 A3012 RMK AO2 SLP194 T03330217 =
2019-09-09 10:54 METAR KMEM 091554Z 15005KT 10SM FEW250 33/21 A3013 RMK AO2 SLP196 T03280211 =
2019-09-09 09:54 METAR KMEM 091454Z 17007KT 10SM FEW250 31/20 A3012 RMK AO2 SLP196 T03060200
                 51012 =
2019-09-09 08:54 METAR KMEM 091354Z 14005KT 10SM FEW170 FEW250 29/19 A3012 RMK AO2 SLP194
                 T02890194 =
2019-09-09 07:54 METAR KMEM 091254Z 14005KT 10SM FEW170 FEW250 27/19 A3011 RMK AO2 SLP189
                 T02670194 =
2019-09-09 06:54 METAR KMEM 091154Z 11004KT 10SM FEW170 24/20 A3009 RMK AO2 SLP185 T02440200
                 10267 20244 51017 =
2019-09-09 05:54 METAR KMEM 091054Z 10006KT 10SM BKN160 25/21 A3007 RMK AO2 SLP178 T02500206 =
2019-09-09 04:54 METAR KMEM 090954Z 10006KT 10SM BKN160 26/21 A3006 RMK AO2 SLP173 T02560206 =
2019-09-09 03:54 METAR KMEM 090854Z 09005KT 10SM BKN160 26/21 A3004 RMK AO2 SLP167 T02610206
                 53004 =
2019-09-09 02:54 METAR KMEM 090754Z 14005KT 10SM SCT160 27/20 A3003 RMK AO2 SLP165 T02670200 =
2019-09-09 01:54 METAR KMEM 090654Z 18007KT 10SM CLR 26/21 A3002 RMK AO2 SLP161 T02610206 =
2019-09-09 00:54 METAR KMEM 090554Z 17006KT 10SM CLR 26/21 A3003 RMK AO2 SLP162 T02610206 10322
                 20261 403560228 58001 =
2019-09-08 23:54 METAR KMEM 090454Z 16006KT 10SM FEW250 27/21 A3003 RMK AO2 SLP162 T02720206 =
2019-09-08 22:54 METAR KMEM 090354Z 13005KT 10SM FEW250 28/21 A3003 RMK AO2 SLP164 T02830206 =
2019-09-08 21:54 METAR KMEM 090254Z 13006KT 10SM CLR 29/20 A3003 RMK AO2 SLP163 T02890200 53015 =
2019-09-08 20:54 METAR KMEM 090154Z 12007KT 10SM FEW250 30/21 A3001 RMK AO2 SLP158 T03000206 =
2019-09-08 19:54 METAR KMEM 090054Z 10006KT 10SM FEW250 31/22 A3000 RMK AO2 SLP153 T03060217 =
2019-09-08 18:54 METAR KMEM 082354Z 10006KT 10SM FEW250 32/22 A2998 RMK AO2 SLP149 T03220217
                 10356 20322 57004 =
2019-09-08 17:54 METAR KMEM 082254Z 07007KT 10SM FEW005 FEW120 34/21 A2999 RMK AO2 SLP151
                 T03390211 =
2019-09-08 16:54 METAR KMEM 082154Z 02005KT 10SM FEW065 FEW120 34/22 A2999 RMK AO2 SLP151
                 T03440217 =
2019-09-08 15:54 METAR KMEM 082054Z 01008KT 10SM FEW080 34/22 A3000 RMK AO2 SLP154 T03390217
                 56015 =
2019-09-08 14:54 METAR KMEM 081954Z VRB05KT 10SM BKN085 33/21 A3001 RMK AO2 SLP157 T03330211 =
2019-09-08 13:54 METAR KMEM 081854Z 00000KT 10SM SCT085 34/22 A3002 RMK AO2 SLP161 T03390217 =
2019-09-08 12:54 METAR KMEM 081754Z VRB03KT 10SM SCT085 33/22 A3004 RMK AO2 SLP167 T03280222
                 10328 20233 58002 =
2019-09-08 11:54 METAR KMEM 081654Z 17003KT 10SM SCT080 31/21 A3005 RMK AO2 SLP172 T03110211 =
2019-09-08 10:54 METAR KMEM 081554Z 19004KT 10SM SCT050 30/20 A3005 RMK AO2 SLP172 T03000200 =
2019-09-08 09:54 METAR KMEM 081454Z AUTO 16005KT 10SM CLR 28/19 A3005 RMK AO2 SLP171 T02830194
                 53015 =
2019-09-08 08:54 METAR KMEM 081354Z 17006KT 10SM CLR 26/18 A3002 RMK AO2 SLP162 T02560183 =
2019-09-08 07:54 METAR KMEM 081254Z 14004KT 10SM FEW180 24/18 A3001 RMK AO2 SLP157 T02390178 =
2019-09-08 06:54 METAR KMEM 081154Z 11004KT 10SM SCT180 23/17 A3000 RMK AO2 SLP156 T02330172
                 10244 20228 51007 =
2019-09-08 05:54 METAR KMEM 081054Z 10006KT 10SM SCT180 23/18 A2999 RMK AO2 SLP152 T02280178 =
2019-09-08 04:54 METAR KMEM 080954Z 08005KT 10SM CLR 23/18 A2999 RMK AO2 SLP153 T02280178 =
2019-09-08 03:54 METAR KMEM 080854Z 09006KT 10SM CLR 23/18 A2998 RMK AO2 SLP149 T02280178 55006 =
2019-09-08 02:54 METAR KMEM 080754Z 06006KT 10SM CLR 24/18 A2998 RMK AO2 SLP149 T02390178 =
2019-09-08 01:54 METAR KMEM 080654Z 10005KT 10SM CLR 24/18 A2999 RMK AO2 SLP151 T02390183 =
2019-09-08 00:54 METAR KMEM 080554Z 06006KT 10SM CLR 24/18 A3000 RMK AO2 SLP154 T02440183 10300
                 20244 403280244 51003 =
2019-09-07 23:54 METAR KMEM 080454Z 04008KT 10SM CLR 26/18 A2999 RMK AO2 SLP152 T02560183 =
2019-09-07 22:54 METAR KMEM 080354Z 05008KT 10SM CLR 26/18 A3000 RMK AO2 SLP154 T02610183 =
2019-09-07 21:54 METAR KMEM 080254Z 03005KT 10SM CLR 27/19 A2999 RMK AO2 SLP152 T02670189 51010 =
2019-09-07 20:54 METAR KMEM 080154Z 03007KT 10SM CLR 28/19 A2999 RMK AO2 SLP150 T02780189 =
2019-09-07 19:54 METAR KMEM 080054Z 02007KT 10SM CLR 29/19 A2997 RMK AO2 SLP145 T02890194 =
2019-09-07 18:54 METAR KMEM 072354Z 03006KT 10SM CLR 30/21 A2996 RMK AO2 SLP141 T03000206 10328
                 20300 55001 =
2019-09-07 17:54 METAR KMEM 072254Z 04007KT 10SM CLR 31/21 A2996 RMK AO2 SLP140 T03110206 =
2019-09-07 16:54 METAR KMEM 072154Z VRB04KT 10SM FEW046 32/21 A2995 RMK AO2 SLP137 T03220211 =
2019-09-07 15:54 METAR KMEM 072054Z 04008KT 10SM FEW046 FEW250 33/21 A2996 RMK AO2 SLP142
                 T03280211 58013 =
2019-09-07 14:54 METAR KMEM 071954Z 32005KT 10SM FEW046 FEW250 33/22 A2997 RMK AO2 SLP145
                 T03280217 =
2019-09-07 13:54 METAR KMEM 071854Z VRB04KT 10SM FEW250 32/22 A2999 RMK AO2 SLP152 T03220217 =
2019-09-07 12:54 METAR KMEM 071754Z 03006KT 10SM CLR 32/22 A3000 RMK AO2 SLP155 T03170217 10317
                 20244 58008 =
2019-09-07 11:54 METAR KMEM 071654Z 01007KT 10SM CLR 31/22 A3002 RMK AO2 SLP161 T03060217 =
2019-09-07 10:54 METAR KMEM 071554Z 07007KT 10SM CLR 29/21 A3002 RMK AO2 SLP161 T02890211 =
2019-09-07 09:54 METAR KMEM 071454Z 07007KT 10SM CLR 28/21 A3003 RMK AO2 SLP164 T02780211 50007 =
2019-09-07 08:54 METAR KMEM 071354Z 06007KT 10SM CLR 26/21 A3003 RMK AO2 SLP166 T02610211 =
2019-09-07 07:54 METAR KMEM 071254Z 04008KT 10SM CLR 25/22 A3002 RMK AO2 SLP162 T02500217 =
2019-09-07 06:54 METAR KMEM 071154Z 05008KT 10SM CLR 24/22 A3001 RMK AO2 SLP156 T02440217 10272
                 20244 53012 =
2019-09-07 05:54 METAR KMEM 071054Z 06007KT 040V100 10SM CLR 25/22 A2999 RMK AO2 SLP150 T02500222
                 =
2019-09-07 04:54 METAR KMEM 070954Z 06009KT 10SM CLR 26/23 A2998 RMK AO2 SLP146 T02610228 =
2019-09-07 03:54 METAR KMEM 070854Z 36006KT 10SM CLR 27/23 A2997 RMK AO2 SLP144 T02670228 53003 =
2019-09-07 02:54 METAR KMEM 070754Z 33003KT 10SM FEW150 26/23 A2996 RMK AO2 SLP141 T02610233 =
2019-09-07 01:54 METAR KMEM 070654Z 00000KT 10SM FEW250 27/23 A2996 RMK AO2 SLP141 T02670228 =
2019-09-07 00:54 METAR KMEM 070554Z 24004KT 10SM CLR 27/23 A2996 RMK AO2 SLP140 T02720233 10317
                 20267 403440211 53002 =
2019-09-06 23:54 METAR KMEM 070454Z 25003KT 10SM CLR 28/23 A2996 RMK AO2 SLP140 T02780228 =
2019-09-06 22:54 METAR KMEM 070354Z 00000KT 10SM CLR 28/23 A2995 RMK AO2 SLP138 T02830233 =
2019-09-06 21:54 METAR KMEM 070254Z 24004KT 10SM CLR 28/23 A2996 RMK AO2 SLP139 T02830233 50000 =
2019-09-06 20:54 METAR KMEM 070154Z 00000KT 10SM CLR 30/23 A2996 RMK AO2 SLP141 T03000228 =
2019-09-06 19:54 METAR KMEM 070054Z 25003KT 10SM FEW250 31/23 A2996 RMK AO2 SLP140 T03060228 =
2019-09-06 18:54 METAR KMEM 062354Z 25005KT 10SM FEW250 32/22 A2995 RMK AO2 SLP139 T03170222
                 10344 20317 55001 =
2019-09-06 17:54 METAR KMEM 062254Z 28008KT 10SM FEW250 33/22 A2995 RMK AO2 SLP138 T03330217 =
2019-09-06 16:54 METAR KMEM 062154Z 28010KT 10SM FEW050 34/22 A2995 RMK AO2 SLP138 T03390222 =
2019-09-06 15:54 METAR KMEM 062054Z 29007G14KT 10SM FEW050 34/22 A2996 RMK AO2 SLP140 T03440217
                 56022 =
2019-09-06 14:54 METAR KMEM 061954Z 29006KT 10SM FEW043 34/23 A2998 RMK AO2 SLP145 T03390233 =
2019-09-06 13:54 METAR KMEM 061854Z 24005KT 10SM FEW040 33/24 A3000 RMK AO2 SLP155 T03330239 =
2019-09-06 12:54 METAR KMEM 061754Z 27007KT 10SM CLR 32/23 A3002 RMK AO2 SLP162 T03170228 10317
                 20211 58012 =

Support USWX by starting your Amazon purchase here.